Gifford, Arkansas
Current Conditions -  °F | °C
As of 12:53 PM on Friday 31 Oct 2014 (Local Time) from KHOT Reporting Station
Broken Clouds Broken Clouds  
Wind Chill: 17°   Ceiling: 4600
Heat Index: 17°   Visibility: 10mi
Dew Point:   Wind: 13mph
Humidity: 45%   Direction: 350°N
Pressure: 30.25"   Gusts: 21mph
Location:  34.3189°N, 92.8629°W
Report Text: KHOT 311753Z AUTO 35011G18KT 10SM BKN046 17/05 A3025 RMK AO2 SLP241 T01720050 10172 20100 51009
Loading
Personal Weather Stations






























Interactive Weather Map
Tropical Storm Tracking
New forecast layout! Learn more

10-Day Weather Forecast

Advertisements
Track Severe Weather on mobile